sensor_id;sensor_type;location;lat;lon;timestamp;pressure;altitude;pressure_sealevel;temperature;humidity
21449;BME280;10885;52.830;13.788;2022-10-10T04:54:21;101497.47;;;6.15;58.64
21449;BME280;10885;52.830;13.788;2022-10-10T04:59:42;101493.13;;;6.14;58.82
21449;BME280;10885;52.830;13.788;2022-10-10T05:05:04;101481.19;;;6.13;58.66
21449;BME280;10885;52.830;13.788;2022-10-10T05:10:25;101468.59;;;6.15;58.71
21449;BME280;10885;52.830;13.788;2022-10-10T05:15:49;101453.09;;;6.22;59.17
21449;BME280;10885;52.830;13.788;2022-10-10T05:21:12;101445.44;;;6.22;58.72
21449;BME280;10885;52.830;13.788;2022-10-10T05:26:33;101443.94;;;6.24;58.93
21449;BME280;10885;52.830;13.788;2022-10-10T05:31:57;101431.69;;;6.20;59.01
21449;BME280;10885;52.830;13.788;2022-10-10T05:37:18;101437.56;;;6.19;58.99
21449;BME280;10885;52.830;13.788;2022-10-10T05:42:39;101417.47;;;6.32;59.36
21449;BME280;10885;52.830;13.788;2022-10-10T05:47:59;101411.50;;;6.32;59.19
21449;BME280;10885;52.830;13.788;2022-10-10T05:53:22;101418.16;;;6.40;59.47
21449;BME280;10885;52.830;13.788;2022-10-10T05:58:43;101411.72;;;6.54;58.91
21449;BME280;10885;52.830;13.788;2022-10-10T06:04:04;101412.50;;;6.53;59.40
21449;BME280;10885;52.830;13.788;2022-10-10T06:09:25;101426.00;;;6.62;58.98
21449;BME280;10885;52.830;13.788;2022-10-10T06:14:46;101406.66;;;6.64;59.11
21449;BME280;10885;52.830;13.788;2022-10-10T06:20:07;101399.44;;;6.79;58.86
21449;BME280;10885;52.830;13.788;2022-10-10T06:25:28;101397.94;;;6.91;59.08
21449;BME280;10885;52.830;13.788;2022-10-10T06:31:01;101394.13;;;6.96;58.19
21449;BME280;10885;52.830;13.788;2022-10-10T06:36:22;101390.44;;;7.13;58.59
21449;BME280;10885;52.830;13.788;2022-10-10T06:41:43;101387.13;;;7.45;58.28
21449;BME280;10885;52.830;13.788;2022-10-10T06:47:04;101387.59;;;7.82;58.56
21449;BME280;10885;52.830;13.788;2022-10-10T06:52:24;101392.56;;;8.23;57.88
21449;BME280;10885;52.830;13.788;2022-10-10T06:57:45;101376.53;;;8.68;57.84
21449;BME280;10885;52.830;13.788;2022-10-10T07:03:08;101379.75;;;8.88;57.34
21449;BME280;10885;52.830;13.788;2022-10-10T07:08:31;101374.72;;;9.11;56.71
21449;BME280;10885;52.830;13.788;2022-10-10T07:13:52;101368.28;;;9.74;56.49
21449;BME280;10885;52.830;13.788;2022-10-10T07:19:13;101376.00;;;10.58;56.39
21449;BME280;10885;52.830;13.788;2022-10-10T07:24:34;101370.09;;;11.09;55.83
21449;BME280;10885;52.830;13.788;2022-10-10T07:29:56;101370.16;;;11.23;55.57
21449;BME280;10885;52.830;13.788;2022-10-10T07:35:17;101380.88;;;11.42;54.98
21449;BME280;10885;52.830;13.788;2022-10-10T07:40:39;101367.94;;;11.67;54.54
21449;BME280;10885;52.830;13.788;2022-10-10T07:46:00;101370.56;;;12.07;54.21
21449;BME280;10885;52.830;13.788;2022-10-10T07:51:25;101365.94;;;12.43;54.00
21449;BME280;10885;52.830;13.788;2022-10-10T07:56:46;101360.50;;;12.80;53.91
21449;BME280;10885;52.830;13.788;2022-10-10T08:02:08;101345.19;;;13.40;53.44
21449;BME280;10885;52.830;13.788;2022-10-10T08:07:29;101341.81;;;14.02;52.85
21449;BME280;10885;52.830;13.788;2022-10-10T08:12:50;101325.72;;;14.70;52.56
21449;BME280;10885;52.830;13.788;2022-10-10T08:18:11;101334.81;;;15.47;52.04
21449;BME280;10885;52.830;13.788;2022-10-10T08:23:33;101312.13;;;16.50;51.72
21449;BME280;10885;52.830;13.788;2022-10-10T08:28:54;101316.44;;;17.29;50.76
21449;BME280;10885;52.830;13.788;2022-10-10T08:34:15;101320.56;;;18.34;52.32
21449;BME280;10885;52.830;13.788;2022-10-10T08:39:36;101313.97;;;20.54;54.22
21449;BME280;10885;52.830;13.788;2022-10-10T08:45:02;101312.94;;;22.64;48.22
21449;BME280;10885;52.830;13.788;2022-10-10T08:50:30;101302.66;;;19.94;45.85
21449;BME280;10885;52.830;13.788;2022-10-10T08:55:54;101297.19;;;17.87;47.25
21449;BME280;10885;52.830;13.788;2022-10-10T09:01:19;101292.03;;;17.03;47.75
21449;BME280;10885;52.830;13.788;2022-10-10T09:12:50;101289.97;;;15.81;48.44
21449;BME280;10885;52.830;13.788;2022-10-10T09:24:11;101286.25;;;21.56;42.54
21449;BME280;10885;52.830;13.788;2022-10-10T09:29:41;101278.63;;;25.78;37.50
21449;BME280;10885;52.830;13.788;2022-10-10T09:35:19;101276.63;;;23.27;37.74
21449;BME280;10885;52.830;13.788;2022-10-10T09:47:01;101257.16;;;20.40;41.61
21449;BME280;10885;52.830;13.788;2022-10-10T09:52:26;101242.88;;;20.58;40.19
21449;BME280;10885;52.830;13.788;2022-10-10T09:57:50;101244.78;;;18.93;41.66
21449;BME280;10885;52.830;13.788;2022-10-10T10:03:21;101241.56;;;19.00;42.36
21449;BME280;10885;52.830;13.788;2022-10-10T10:08:42;101237.00;;;19.18;43.91
21449;BME280;10885;52.830;13.788;2022-10-10T10:14:25;101230.06;;;19.19;43.93
21449;BME280;10885;52.830;13.788;2022-10-10T10:19:46;101226.19;;;18.32;43.24
21449;BME280;10885;52.830;13.788;2022-10-10T10:25:35;101224.00;;;17.95;44.60
21449;BME280;10885;52.830;13.788;2022-10-10T10:30:57;101225.94;;;18.48;44.05
21449;BME280;10885;52.830;13.788;2022-10-10T10:59:53;101209.50;;;19.54;43.15
21449;BME280;10885;52.830;13.788;2022-10-10T11:05:43;101197.09;;;23.12;40.28
21449;BME280;10885;52.830;13.788;2022-10-10T11:23:10;101181.66;;;20.09;41.21
21449;BME280;10885;52.830;13.788;2022-10-10T11:28:39;101184.97;;;19.45;42.10
21449;BME280;10885;52.830;13.788;2022-10-10T11:34:13;101163.66;;;19.57;42.49
21449;BME280;10885;52.830;13.788;2022-10-10T11:39:55;101158.72;;;20.25;41.86
21449;BME280;10885;52.830;13.788;2022-10-10T11:45:23;101143.75;;;20.18;41.97
21449;BME280;10885;52.830;13.788;2022-10-10T11:50:51;101139.19;;;20.43;42.16
21449;BME280;10885;52.830;13.788;2022-10-10T12:01:41;101142.34;;;20.31;41.90
21449;BME280;10885;52.830;13.788;2022-10-10T12:07:35;101136.50;;;20.40;42.05
21449;BME280;10885;52.830;13.788;2022-10-10T12:18:49;101126.50;;;20.90;41.94
21449;BME280;10885;52.830;13.788;2022-10-10T12:24:12;101115.53;;;21.03;41.39
21449;BME280;10885;52.830;13.788;2022-10-10T12:35:38;101105.19;;;20.70;41.44
21449;BME280;10885;52.830;13.788;2022-10-10T12:46:26;101111.47;;;20.45;41.73
21449;BME280;10885;52.830;13.788;2022-10-10T12:51:59;101111.97;;;20.30;42.13
21449;BME280;10885;52.830;13.788;2022-10-10T12:57:29;101104.25;;;20.68;42.01
21449;BME280;10885;52.830;13.788;2022-10-10T13:02:56;101085.94;;;20.63;41.65
21449;BME280;10885;52.830;13.788;2022-10-10T13:08:23;101085.06;;;20.31;42.01
21449;BME280;10885;52.830;13.788;2022-10-10T13:13:49;101081.78;;;20.05;42.43
21449;BME280;10885;52.830;13.788;2022-10-10T13:19:22;101069.28;;;20.23;42.96
21449;BME280;10885;52.830;13.788;2022-10-10T13:24:44;101075.94;;;20.12;42.61
21449;BME280;10885;52.830;13.788;2022-10-10T13:30:06;101079.44;;;20.14;42.84
21449;BME280;10885;52.830;13.788;2022-10-10T13:35:28;101079.19;;;20.05;43.10
21449;BME280;10885;52.830;13.788;2022-10-10T13:40:50;101066.19;;;20.05;43.28
21449;BME280;10885;52.830;13.788;2022-10-10T13:46:30;101062.41;;;20.25;43.02
21449;BME280;10885;52.830;13.788;2022-10-10T13:52:04;101058.47;;;20.08;43.14
21449;BME280;10885;52.830;13.788;2022-10-10T13:57:25;101057.25;;;19.95;43.47
21449;BME280;10885;52.830;13.788;2022-10-10T14:02:47;101060.72;;;19.64;43.62
21449;BME280;10885;52.830;13.788;2022-10-10T14:08:22;101054.09;;;19.45;44.01
21449;BME280;10885;52.830;13.788;2022-10-10T14:13:50;101054.50;;;19.00;44.46
21449;BME280;10885;52.830;13.788;2022-10-10T14:19:17;101064.91;;;18.73;44.77
21449;BME280;10885;52.830;13.788;2022-10-10T14:24:38;101061.16;;;18.37;45.09
21449;BME280;10885;52.830;13.788;2022-10-10T14:29:59;101053.63;;;18.19;45.57
21449;BME280;10885;52.830;13.788;2022-10-10T14:35:20;101052.91;;;17.98;45.66
21449;BME280;10885;52.830;13.788;2022-10-10T14:40:43;101041.59;;;17.96;46.13
21449;BME280;10885;52.830;13.788;2022-10-10T14:46:04;101042.72;;;17.80;46.24
21449;BME280;10885;52.830;13.788;2022-10-10T14:51:26;101033.97;;;17.76;46.32
21449;BME280;10885;52.830;13.788;2022-10-10T14:56:54;101030.28;;;17.69;46.51
21449;BME280;10885;52.830;13.788;2022-10-10T15:02:29;101037.19;;;17.69;46.68
21449;BME280;10885;52.830;13.788;2022-10-10T15:07:50;101033.59;;;17.89;46.76
21449;BME280;10885;52.830;13.788;2022-10-10T15:13:14;101020.06;;;17.98;46.53
21449;BME280;10885;52.830;13.788;2022-10-10T15:18:35;101029.19;;;17.87;46.61
21449;BME280;10885;52.830;13.788;2022-10-10T15:24:16;101023.72;;;17.55;46.98
21449;BME280;10885;52.830;13.788;2022-10-10T15:29:37;101033.84;;;17.25;47.48
21449;BME280;10885;52.830;13.788;2022-10-10T15:34:59;101044.03;;;16.98;47.71
21449;BME280;10885;52.830;13.788;2022-10-10T15:40:22;101042.09;;;16.71;48.00
21449;BME280;10885;52.830;13.788;2022-10-10T15:45:43;101049.00;;;16.49;48.48
21449;BME280;10885;52.830;13.788;2022-10-10T15:51:24;101048.69;;;16.21;48.65
21449;BME280;10885;52.830;13.788;2022-10-10T15:56:44;101053.97;;;16.03;49.16
21449;BME280;10885;52.830;13.788;2022-10-10T16:02:05;101052.31;;;15.84;49.45
21449;BME280;10885;52.830;13.788;2022-10-10T16:07:26;101057.44;;;15.64;49.56
21449;BME280;10885;52.830;13.788;2022-10-10T16:12:53;101060.00;;;15.45;49.50
21449;BME280;10885;52.830;13.788;2022-10-10T16:18:14;101062.44;;;15.22;49.86
21449;BME280;10885;52.830;13.788;2022-10-10T16:23:35;101063.56;;;15.09;50.50
21449;BME280;10885;52.830;13.788;2022-10-10T16:28:55;101068.97;;;14.96;50.24
21449;BME280;10885;52.830;13.788;2022-10-10T16:34:16;101071.03;;;14.85;50.57
21449;BME280;10885;52.830;13.788;2022-10-10T16:39:38;101062.50;;;14.68;50.75
21449;BME280;10885;52.830;13.788;2022-10-10T16:44:59;101062.78;;;14.57;50.95
21449;BME280;10885;52.830;13.788;2022-10-10T16:50:20;101067.44;;;14.47;51.49
21449;BME280;10885;52.830;13.788;2022-10-10T16:55:41;101063.38;;;14.35;51.06
21449;BME280;10885;52.830;13.788;2022-10-10T17:01:10;101070.56;;;14.24;51.46
21449;BME280;10885;52.830;13.788;2022-10-10T17:06:31;101063.03;;;14.10;51.66
21449;BME280;10885;52.830;13.788;2022-10-10T17:11:57;101064.19;;;13.99;51.66
21449;BME280;10885;52.830;13.788;2022-10-10T17:17:18;101067.97;;;13.89;52.11
21449;BME280;10885;52.830;13.788;2022-10-10T17:22:38;101068.22;;;13.78;52.28
21449;BME280;10885;52.830;13.788;2022-10-10T17:28:00;101072.00;;;13.68;52.55
21449;BME280;10885;52.830;13.788;2022-10-10T17:33:21;101070.50;;;13.55;52.57
21449;BME280;10885;52.830;13.788;2022-10-10T17:38:43;101072.38;;;13.43;52.44
21449;BME280;10885;52.830;13.788;2022-10-10T17:44:04;101069.34;;;13.33;52.69
21449;BME280;10885;52.830;13.788;2022-10-10T17:49:30;101065.16;;;13.21;52.94
21449;BME280;10885;52.830;13.788;2022-10-10T17:54:51;101069.66;;;13.08;53.11
21449;BME280;10885;52.830;13.788;2022-10-10T18:00:12;101072.53;;;12.98;53.04
21449;BME280;10885;52.830;13.788;2022-10-10T18:05:34;101062.03;;;12.95;53.59
21449;BME280;10885;52.830;13.788;2022-10-10T18:10:56;101068.78;;;12.93;53.80
21449;BME280;10885;52.830;13.788;2022-10-10T18:16:19;101070.78;;;12.82;53.33
21449;BME280;10885;52.830;13.788;2022-10-10T18:21:40;101066.28;;;12.78;53.81
21449;BME280;10885;52.830;13.788;2022-10-10T18:27:01;101069.81;;;12.80;53.82
21449;BME280;10885;52.830;13.788;2022-10-10T18:32:22;101065.84;;;12.70;53.91
21449;BME280;10885;52.830;13.788;2022-10-10T18:37:43;101067.53;;;12.70;54.44
21449;BME280;10885;52.830;13.788;2022-10-10T18:43:03;101068.84;;;12.63;53.95
21449;BME280;10885;52.830;13.788;2022-10-10T18:48:24;101088.91;;;12.54;54.39
21449;BME280;10885;52.830;13.788;2022-10-10T18:53:45;101083.59;;;12.51;54.24
21449;BME280;10885;52.830;13.788;2022-10-10T18:59:11;101098.13;;;12.50;54.35
21449;BME280;10885;52.830;13.788;2022-10-10T19:04:33;101110.53;;;12.43;54.51
21449;BME280;10885;52.830;13.788;2022-10-10T19:09:53;101113.00;;;12.41;54.63
21449;BME280;10885;52.830;13.788;2022-10-10T19:15:15;101116.31;;;12.39;54.47
21449;BME280;10885;52.830;13.788;2022-10-10T19:20:36;101118.16;;;12.26;54.60
21449;BME280;10885;52.830;13.788;2022-10-10T19:26:07;101118.69;;;12.21;54.77
21449;BME280;10885;52.830;13.788;2022-10-10T19:31:28;101116.53;;;12.13;55.01
21449;BME280;10885;52.830;13.788;2022-10-10T19:36:50;101106.25;;;12.13;55.02
21449;BME280;10885;52.830;13.788;2022-10-10T19:42:11;101123.00;;;12.07;55.09
21449;BME280;10885;52.830;13.788;2022-10-10T19:47:32;101124.41;;;12.02;55.18
21449;BME280;10885;52.830;13.788;2022-10-10T19:52:57;101121.75;;;12.00;55.37
21449;BME280;10885;52.830;13.788;2022-10-10T19:58:23;101138.50;;;12.08;55.60
21449;BME280;10885;52.830;13.788;2022-10-10T20:03:45;101133.72;;;12.14;55.35
21449;BME280;10885;52.830;13.788;2022-10-10T20:09:09;101139.06;;;12.18;55.54
21449;BME280;10885;52.830;13.788;2022-10-10T20:14:31;101143.25;;;12.30;55.60
21449;BME280;10885;52.830;13.788;2022-10-10T20:19:52;101148.84;;;12.38;55.97
21449;BME280;10885;52.830;13.788;2022-10-10T20:25:13;101147.69;;;12.48;55.55
21449;BME280;10885;52.830;13.788;2022-10-10T20:30:38;101152.59;;;12.58;55.85
21449;BME280;10885;52.830;13.788;2022-10-10T20:36:00;101152.16;;;12.65;55.44
21449;BME280;10885;52.830;13.788;2022-10-10T20:41:23;101162.78;;;12.71;55.24
21449;BME280;10885;52.830;13.788;2022-10-10T20:46:45;101165.88;;;12.81;55.38
21449;BME280;10885;52.830;13.788;2022-10-10T20:52:06;101181.75;;;12.88;55.29
21449;BME280;10885;52.830;13.788;2022-10-10T20:57:27;101187.09;;;12.91;55.21
21449;BME280;10885;52.830;13.788;2022-10-10T21:02:48;101200.41;;;12.99;55.37
21449;BME280;10885;52.830;13.788;2022-10-10T21:08:09;101210.31;;;13.08;55.03
21449;BME280;10885;52.830;13.788;2022-10-10T21:13:32;101210.47;;;13.11;54.89
21449;BME280;10885;52.830;13.788;2022-10-10T21:18:56;101229.50;;;13.13;55.17
21449;BME280;10885;52.830;13.788;2022-10-10T21:24:18;101240.16;;;13.19;54.97
21449;BME280;10885;52.830;13.788;2022-10-10T21:29:39;101241.13;;;13.21;54.85
21449;BME280;10885;52.830;13.788;2022-10-10T21:35:00;101260.13;;;13.23;55.15
21449;BME280;10885;52.830;13.788;2022-10-10T21:40:21;101258.31;;;13.22;55.23
21449;BME280;10885;52.830;13.788;2022-10-10T21:45:42;101260.75;;;13.19;54.95
21449;BME280;10885;52.830;13.788;2022-10-10T21:51:03;101272.69;;;13.19;55.40
21449;BME280;10885;52.830;13.788;2022-10-10T21:56:25;101287.25;;;13.18;55.37
